Time;durP1;ratioP1;P1;durP2;ratioP2;P2;SDS_P1;SDS_P2;PMS_P1;PMS_P2;Temp;Humidity;BMP_temperature;BMP_pressure;BME280_temperature;BME280_humidity;BME280_pressure;Samples;Min_cycle;Max_cycle;Signal;HPM_P1;HPM_P2
2023/12/21 00:00:55;;;;;;;;;;;;;;;4.55;70.00;99307.06;4376337;32;34221;-87
2023/12/21 00:03:26;;;;;;;;;;;;;;;4.50;70.43;99313.88;4370335;32;34015;-90
2023/12/21 00:06:13;;;;;;;;;;;;;;;4.54;70.33;99317.31;4371037;32;34490;-88
2023/12/21 00:08:45;;;;;;;;;;;;;;;4.66;69.53;99310.56;4363314;32;32544;-90
2023/12/21 00:11:13;;;;;;;;;;;;;;;4.71;69.58;99302.84;4355714;32;33750;-88
2023/12/21 00:13:42;;;;;;;;;;;;;;;4.79;69.28;99300.31;4361212;32;34514;-90
2023/12/21 00:16:12;;;;;;;;;;;;;;;4.82;69.08;99297.75;4357082;32;33458;-91
2023/12/21 00:18:46;;;;;;;;;;;;;;;4.74;69.21;99292.59;4356142;32;34055;-87
2023/12/21 00:21:15;;;;;;;;;;;;;;;5.01;68.26;99294.38;4363168;32;33497;-92
2023/12/21 00:23:47;;;;;;;;;;;;;;;4.96;68.72;99290.09;4368269;32;34897;-88
2023/12/21 00:26:15;;;;;;;;;;;;;;;5.04;68.49;99288.38;4357095;32;34309;-87
2023/12/21 00:28:45;;;;;;;;;;;;;;;5.19;67.82;99287.56;4369023;32;33200;-89
2023/12/21 00:31:17;;;;;;;;;;;;;;;5.12;68.20;99295.28;4355762;32;33259;-87
2023/12/21 00:33:47;;;;;;;;;;;;;;;5.19;67.59;99282.44;4355703;32;34191;-89
2023/12/21 00:36:16;;;;;;;;;;;;;;;4.99;68.56;99287.53;4361508;32;33658;-91
2023/12/21 00:38:53;;;;;;;;;;;;;;;5.33;66.80;99286.72;4356161;32;33201;-89
2023/12/21 00:41:21;;;;;;;;;;;;;;;5.38;66.46;99289.31;4349867;32;33712;-88
2023/12/21 00:43:53;;;;;;;;;;;;;;;5.02;68.12;99284.97;4368685;32;33712;-89
2023/12/21 00:46:21;;;;;;;;;;;;;;;5.22;67.47;99282.41;4376252;32;34555;-90
2023/12/21 00:48:50;;;;;;;;;;;;;;;4.94;67.80;99277.22;4373463;32;34224;-89
2023/12/21 00:51:19;;;;;;;;;;;;;;;5.23;67.18;99273.88;4371690;32;34718;-93
2023/12/21 00:53:49;;;;;;;;;;;;;;;4.89;67.66;99264.34;4364023;32;34297;-90
2023/12/21 00:56:24;;;;;;;;;;;;;;;5.11;66.97;99256.69;4366787;32;34247;-89
2023/12/21 00:58:59;;;;;;;;;;;;;;;5.19;66.44;99249.84;4376133;32;32804;-90
2023/12/21 01:01:28;;;;;;;;;;;;;;;5.47;65.59;99253.31;4370766;32;33326;-90
2023/12/21 01:03:58;;;;;;;;;;;;;;;5.30;65.88;99255.03;4370005;32;33225;-90
2023/12/21 01:06:27;;;;;;;;;;;;;;;5.20;65.81;99254.16;4370646;32;34469;-89
2023/12/21 01:08:59;;;;;;;;;;;;;;;5.28;65.88;99256.72;4372295;32;33380;-91
2023/12/21 01:11:28;;;;;;;;;;;;;;;5.21;66.05;99260.16;4350859;32;33576;-89
2023/12/21 01:13:57;;;;;;;;;;;;;;;5.33;65.58;99255.00;4355244;32;33956;-90
2023/12/21 01:16:29;;;;;;;;;;;;;;;5.32;65.22;99255.88;4355213;32;33187;-89
2023/12/21 01:18:58;;;;;;;;;;;;;;;5.28;65.09;99251.59;4357011;32;33887;-88
2023/12/21 01:21:29;;;;;;;;;;;;;;;5.38;64.25;99245.59;4376336;32;34505;-91
2023/12/21 01:24:04;;;;;;;;;;;;;;;5.24;65.02;99255.00;4367824;32;33835;-90
2023/12/21 01:26:34;;;;;;;;;;;;;;;5.25;64.98;99247.28;4356584;32;34763;-92
2023/12/21 01:29:05;;;;;;;;;;;;;;;5.44;63.97;99243.03;4356647;32;33455;-90
2023/12/21 01:31:33;;;;;;;;;;;;;;;5.21;64.35;99237.00;4355245;32;33446;-88
2023/12/21 01:34:05;;;;;;;;;;;;;;;5.39;63.87;99233.56;4375452;32;34357;-89
2023/12/21 01:36:34;;;;;;;;;;;;;;;5.32;64.02;99231.00;4370715;32;34937;-89
2023/12/21 01:39:03;;;;;;;;;;;;;;;5.35;63.64;99222.44;4370980;32;34167;-90
2023/12/21 01:41:35;;;;;;;;;;;;;;;5.50;63.45;99213.84;4358277;32;34968;-91
2023/12/21 01:44:04;;;;;;;;;;;;;;;5.48;63.33;99218.16;4361280;32;34931;-90
2023/12/21 01:46:36;;;;;;;;;;;;;;;5.21;64.32;99211.28;4364548;32;33755;-88
2023/12/21 01:49:06;;;;;;;;;;;;;;;5.37;63.77;99209.59;4357591;32;31735;-91
2023/12/21 01:51:35;;;;;;;;;;;;;;;5.53;63.30;99201.88;4347710;32;34360;-92
2023/12/21 01:54:03;;;;;;;;;;;;;;;5.66;62.90;99194.13;4352499;32;33180;-87
2023/12/21 01:56:34;;;;;;;;;;;;;;;5.64;63.20;99201.00;4360601;32;32687;-89
2023/12/21 01:59:03;;;;;;;;;;;;;;;5.63;63.41;99197.56;4356270;32;32815;-88
2023/12/21 02:01:33;;;;;;;;;;;;;;;5.73;63.06;99195.84;4354319;32;33543;-89
2023/12/21 02:04:02;;;;;;;;;;;;;;;5.65;63.27;99198.41;4354489;32;34095;-87
2023/12/21 02:06:31;;;;;;;;;;;;;;;5.68;62.92;99182.12;4360606;32;34603;-90
2023/12/21 02:09:00;;;;;;;;;;;;;;;5.72;62.88;99188.97;4354034;32;33049;-92
2023/12/21 02:11:29;;;;;;;;;;;;;;;5.97;61.22;99180.38;4355213;32;34575;-88
2023/12/21 02:14:04;;;;;;;;;;;;;;;5.83;61.96;99183.81;4355702;32;33708;-93
2023/12/21 02:16:37;;;;;;;;;;;;;;;5.61;62.71;99173.56;4360096;32;33723;-89
2023/12/21 02:19:05;;;;;;;;;;;;;;;5.65;63.09;99182.09;4360222;32;33384;-88
2023/12/21 02:21:41;;;;;;;;;;;;;;;5.84;62.58;99165.78;4355521;32;34556;-89
2023/12/21 02:24:12;;;;;;;;;;;;;;;6.02;60.74;99171.75;4355054;32;33598;-89
2023/12/21 02:26:49;;;;;;;;;;;;;;;5.89;61.29;99166.59;4356551;32;34316;-92
2023/12/21 02:29:17;;;;;;;;;;;;;;;6.14;60.09;99169.16;4360233;32;33050;-89
2023/12/21 02:31:49;;;;;;;;;;;;;;;6.08;59.88;99157.16;4359397;32;32832;-91
2023/12/21 02:34:25;;;;;;;;;;;;;;;6.32;58.98;99152.75;4355153;32;33713;-89
2023/12/21 02:36:54;;;;;;;;;;;;;;;6.11;60.18;99159.72;4355230;32;34813;-89
2023/12/21 02:39:30;;;;;;;;;;;;;;;6.23;60.20;99151.06;4356458;32;32661;-90
2023/12/21 02:41:58;;;;;;;;;;;;;;;6.14;60.59;99153.72;4360362;32;33734;-92
2023/12/21 02:44:27;;;;;;;;;;;;;;;5.95;61.61;99161.50;4355102;32;34138;-89
2023/12/21 02:46:57;;;;;;;;;;;;;;;6.09;61.49;99150.28;4355161;32;33436;-88
2023/12/21 02:49:26;;;;;;;;;;;;;;;6.22;61.08;99159.69;4356075;32;33198;-89
2023/12/21 02:51:55;;;;;;;;;;;;;;;6.25;61.00;99157.06;4354451;32;33214;-93
2023/12/21 02:54:26;;;;;;;;;;;;;;;6.09;61.30;99150.28;4359371;32;32589;-90
2023/12/21 02:56:56;;;;;;;;;;;;;;;6.18;61.10;99150.25;4354711;32;33552;-91
2023/12/21 02:59:35;;;;;;;;;;;;;;;6.15;61.20;99142.53;4355743;32;33366;-87
2023/12/21 03:02:04;;;;;;;;;;;;;;;6.14;61.20;99144.25;4354265;32;34786;-88
2023/12/21 03:04:42;;;;;;;;;;;;;;;6.05;60.98;99136.56;4345717;33;34657;-89
2023/12/21 03:07:14;;;;;;;;;;;;;;;5.75;61.91;99140.94;4356849;32;33860;-88
2023/12/21 03:09:42;;;;;;;;;;;;;;;6.05;60.68;99146.00;4358690;32;32874;-89
2023/12/21 03:12:19;;;;;;;;;;;;;;;5.95;61.07;99152.91;4354566;32;34799;-89
2023/12/21 03:14:48;;;;;;;;;;;;;;;5.98;60.83;99148.59;4354384;32;34361;-89
2023/12/21 03:17:18;;;;;;;;;;;;;;;5.86;61.40;99145.19;4360250;32;34394;-88
2023/12/21 03:19:46;;;;;;;;;;;;;;;5.96;61.16;99147.75;4360421;32;33855;-87
2023/12/21 03:22:15;;;;;;;;;;;;;;;5.63;61.79;99140.97;4356219;32;33654;-90
2023/12/21 03:24:47;;;;;;;;;;;;;;;6.04;60.50;99136.56;4356342;32;34201;-89
2023/12/21 03:27:20;;;;;;;;;;;;;;;5.69;61.34;99127.22;4361402;32;33540;-89
2023/12/21 03:29:49;;;;;;;;;;;;;;;5.84;60.66;99134.03;4362198;32;33042;-92
2023/12/21 03:32:17;;;;;;;;;;;;;;;5.87;60.68;99132.31;4357059;32;33800;-89
2023/12/21 03:34:53;;;;;;;;;;;;;;;6.02;60.34;99133.13;4352784;32;33557;-88
2023/12/21 03:37:27;;;;;;;;;;;;;;;6.08;60.02;99140.84;4357023;32;33716;-89
2023/12/21 03:39:56;;;;;;;;;;;;;;;5.78;60.82;99140.06;4360593;32;33766;-89
2023/12/21 03:42:34;;;;;;;;;;;;;;;5.63;61.27;99135.81;4358333;32;34745;-90
2023/12/21 03:45:05;;;;;;;;;;;;;;;5.64;61.31;99141.81;4356366;32;34796;-89
2023/12/21 03:47:33;;;;;;;;;;;;;;;5.86;60.88;99143.47;4356885;32;33042;-89
2023/12/21 03:50:03;;;;;;;;;;;;;;;5.57;61.55;99128.94;4356659;32;32910;-90
2023/12/21 03:52:34;;;;;;;;;;;;;;;5.85;60.97;99128.03;4362118;32;33789;-90
2023/12/21 03:55:08;;;;;;;;;;;;;;;5.87;61.22;99127.16;4355809;32;34685;-87
2023/12/21 03:57:39;;;;;;;;;;;;;;;5.85;61.45;99126.31;4361627;32;33270;-92
2023/12/21 04:00:11;;;;;;;;;;;;;;;5.62;62.09;99116.06;4359229;32;33403;-89
2023/12/21 04:02:39;;;;;;;;;;;;;;;5.47;62.79;99116.13;4357195;32;33606;-88
2023/12/21 04:05:08;;;;;;;;;;;;;;;5.58;62.74;99106.63;4355914;32;33954;-89
2023/12/21 04:07:37;;;;;;;;;;;;;;;5.61;62.86;99104.06;4343061;33;34016;-88
2023/12/21 04:10:08;;;;;;;;;;;;;;;5.56;63.27;99090.38;4338204;33;33166;-90
2023/12/21 04:12:38;;;;;;;;;;;;;;;5.35;63.77;99092.13;4341939;33;33537;-88
2023/12/21 04:15:08;;;;;;;;;;;;;;;5.47;63.77;99100.69;4341282;33;33758;-89
2023/12/21 04:17:38;;;;;;;;;;;;;;;5.08;64.93;99098.16;4341804;33;33767;-89
2023/12/21 04:20:07;;;;;;;;;;;;;;;5.43;63.84;99097.25;4343667;33;34156;-90
2023/12/21 04:22:39;;;;;;;;;;;;;;;5.22;64.51;99094.69;4341744;33;34890;-90
2023/12/21 04:25:09;;;;;;;;;;;;;;;5.38;64.30;99085.25;4344011;33;33604;-89
2023/12/21 04:27:44;;;;;;;;;;;;;;;5.41;64.03;99080.94;4346810;33;34083;-88
2023/12/21 04:30:13;;;;;;;;;;;;;;;5.44;64.09;99085.25;4342055;33;32811;-91
2023/12/21 04:32:47;;;;;;;;;;;;;;;5.27;64.35;99087.88;4347487;32;33444;-90
2023/12/21 04:35:16;;;;;;;;;;;;;;;5.46;64.03;99080.94;4356378;32;34456;-89
2023/12/21 04:37:48;;;;;;;;;;;;;;;5.43;64.14;99065.53;4362008;32;33765;-88
2023/12/21 04:40:17;;;;;;;;;;;;;;;5.21;64.28;99059.56;4356153;32;33040;-90
2023/12/21 04:42:54;;;;;;;;;;;;;;;5.47;63.66;99062.09;4355847;32;34165;-89
2023/12/21 04:45:26;;;;;;;;;;;;;;;5.44;63.74;99060.38;4356620;32;34844;-87
2023/12/21 04:47:54;;;;;;;;;;;;;;;5.18;64.49;99060.44;4361235;32;34705;-91
2023/12/21 04:50:28;;;;;;;;;;;;;;;5.14;64.88;99063.84;4348145;32;31918;-88
2023/12/21 04:52:57;;;;;;;;;;;;;;;5.29;64.37;99060.41;4356545;32;34424;-89
2023/12/21 04:55:28;;;;;;;;;;;;;;;5.16;64.70;99048.44;4356053;32;33780;-87
2023/12/21 04:57:58;;;;;;;;;;;;;;;4.95;64.85;99046.75;4346506;33;34610;-91
2023/12/21 05:00:29;;;;;;;;;;;;;;;5.08;64.94;99046.72;4347084;33;32970;-88
2023/12/21 05:02:58;;;;;;;;;;;;;;;4.98;64.98;99039.91;4345960;33;33792;-89
2023/12/21 05:05:29;;;;;;;;;;;;;;;4.98;65.07;99039.91;4341288;33;34485;-88
2023/12/21 05:07:58;;;;;;;;;;;;;;;5.01;64.57;99032.19;4343439;33;33813;-87
2023/12/21 05:10:28;;;;;;;;;;;;;;;4.89;64.87;99027.06;4341168;33;33984;-89
2023/12/21 05:12:58;;;;;;;;;;;;;;;4.87;64.69;99028.75;4344367;33;33714;-88
2023/12/21 05:15:28;;;;;;;;;;;;;;;4.28;67.02;99028.75;4341286;33;33829;-89
2023/12/21 05:17:57;;;;;;;;;;;;;;;4.67;65.18;99027.06;4341495;33;33463;-92
2023/12/21 05:20:33;;;;;;;;;;;;;;;4.58;65.39;99026.19;4341140;33;33344;-89
2023/12/21 05:23:02;;;;;;;;;;;;;;;4.49;65.57;99020.22;4344109;33;34516;-87
2023/12/21 05:25:34;;;;;;;;;;;;;;;4.57;65.14;99019.38;4346468;33;35935;-92
2023/12/21 05:28:04;;;;;;;;;;;;;;;4.58;65.10;99016.78;4343072;33;33948;-89
2023/12/21 05:30:34;;;;;;;;;;;;;;;4.46;65.01;99019.34;4341101;33;33145;-91
2023/12/21 05:33:03;;;;;;;;;;;;;;;4.49;65.15;99016.78;4341198;33;33833;-91
2023/12/21 05:35:32;;;;;;;;;;;;;;;4.54;64.63;99016.78;4346612;33;33690;-89
2023/12/21 05:38:05;;;;;;;;;;;;;;;4.12;65.89;99013.31;4345076;33;33537;-90
2023/12/21 05:40:33;;;;;;;;;;;;;;;4.32;65.23;99010.78;4344125;33;32490;-90
2023/12/21 05:43:04;;;;;;;;;;;;;;;4.30;65.08;99020.19;4341271;33;34466;-88
2023/12/21 05:45:33;;;;;;;;;;;;;;;4.38;64.85;99019.34;4341939;33;33469;-90
2023/12/21 05:48:03;;;;;;;;;;;;;;;4.28;65.04;99007.34;4346342;33;33818;-92
2023/12/21 05:50:32;;;;;;;;;;;;;;;4.39;64.72;99015.91;4344375;33;34192;-89
2023/12/21 05:53:09;;;;;;;;;;;;;;;4.19;65.46;99009.91;4341083;33;34579;-89
2023/12/21 05:55:38;;;;;;;;;;;;;;;4.34;65.72;98998.78;4341427;32;33628;-91
2023/12/21 05:58:14;;;;;;;;;;;;;;;4.21;66.14;98992.81;4361646;32;34390;-91
2023/12/21 06:00:46;;;;;;;;;;;;;;;4.09;66.68;99006.47;4357433;32;32773;-88
2023/12/21 06:03:14;;;;;;;;;;;;;;;4.02;67.10;99000.47;4356181;32;34526;-90
2023/12/21 06:05:43;;;;;;;;;;;;;;;3.94;67.18;98998.72;4355601;32;33660;-88
2023/12/21 06:08:12;;;;;;;;;;;;;;;3.94;66.94;99001.28;4356205;32;34780;-88
2023/12/21 06:10:45;;;;;;;;;;;;;;;4.05;67.04;99000.47;4361123;32;33096;-89
2023/12/21 06:13:14;;;;;;;;;;;;;;;4.09;66.95;98995.34;4355710;32;33501;-88
2023/12/21 06:15:44;;;;;;;;;;;;;;;3.97;66.86;98997.03;4342186;32;33078;-88
2023/12/21 06:18:14;;;;;;;;;;;;;;;4.02;66.64;98999.59;4356391;32;33652;-88
2023/12/21 06:20:45;;;;;;;;;;;;;;;4.13;66.52;99005.63;4360659;32;33970;-87
2023/12/21 06:23:17;;;;;;;;;;;;;;;3.92;66.64;98990.19;4355556;32;33424;-91
2023/12/21 06:25:45;;;;;;;;;;;;;;;3.95;66.67;98983.34;4355475;32;34108;-88
2023/12/21 06:28:20;;;;;;;;;;;;;;;4.07;66.11;98972.25;4361500;32;33857;-88
2023/12/21 06:30:54;;;;;;;;;;;;;;;4.00;66.58;98973.09;4355638;32;32825;-89
2023/12/21 06:33:23;;;;;;;;;;;;;;;4.05;66.72;98976.50;4361078;32;34225;-93
2023/12/21 06:35:51;;;;;;;;;;;;;;;4.02;67.11;98974.78;4355580;32;33921;-91
2023/12/21 06:38:23;;;;;;;;;;;;;;;3.95;67.48;98977.34;4360418;32;34769;-88
2023/12/21 06:40:51;;;;;;;;;;;;;;;4.18;67.83;98970.56;4355411;32;33004;-88
2023/12/21 06:43:22;;;;;;;;;;;;;;;3.96;68.56;98966.22;4359499;32;33343;-91
2023/12/21 06:45:51;;;;;;;;;;;;;;;4.05;68.33;98976.50;4358720;32;34184;-89
2023/12/21 06:48:23;;;;;;;;;;;;;;;3.97;69.08;98980.78;4357461;32;33494;-91
2023/12/21 06:50:58;;;;;;;;;;;;;;;4.21;68.49;98978.25;4354952;32;32884;-89
2023/12/21 06:53:26;;;;;;;;;;;;;;;4.18;68.33;98983.38;4354251;32;34434;-87
2023/12/21 06:55:57;;;;;;;;;;;;;;;4.13;68.68;98984.22;4360480;32;33873;-88
2023/12/21 06:58:50;;;;;;;;;;;;;;;4.18;68.58;98967.09;4360802;32;33711;-92
2023/12/21 07:01:24;;;;;;;;;;;;;;;4.15;68.88;98970.53;4355482;32;32964;-92
2023/12/21 07:03:52;;;;;;;;;;;;;;;4.08;69.37;98958.53;4355584;32;34314;-88
2023/12/21 07:06:21;;;;;;;;;;;;;;;4.02;69.45;98955.97;4354934;32;33975;-89
2023/12/21 07:08:51;;;;;;;;;;;;;;;3.93;69.41;98953.38;4360778;32;34184;-89
2023/12/21 07:11:19;;;;;;;;;;;;;;;3.89;69.62;98949.09;4355631;32;32996;-90
2023/12/21 07:13:51;;;;;;;;;;;;;;;3.92;69.48;98951.69;4355228;32;35100;-91
2023/12/21 07:16:19;;;;;;;;;;;;;;;3.88;69.75;98948.25;4354994;32;34159;-91
2023/12/21 07:18:55;;;;;;;;;;;;;;;3.95;69.64;98944.84;4345673;32;33449;-89
2023/12/21 07:21:29;;;;;;;;;;;;;;;3.93;69.55;98936.28;4360421;32;32446;-89
2023/12/21 07:23:58;;;;;;;;;;;;;;;3.91;69.40;98942.25;4354299;32;33520;-88
2023/12/21 07:29:03;;;;;;;;;;;;;;;3.97;69.37;98944.84;4358465;32;33724;-88
2023/12/21 07:31:31;;;;;;;;;;;;;;;4.04;69.32;98926.87;4359950;32;33516;-90
2023/12/21 07:34:00;;;;;;;;;;;;;;;3.97;69.83;98921.75;4354635;32;34078;-91
2023/12/21 07:36:29;;;;;;;;;;;;;;;3.83;70.91;98919.16;4354103;32;33613;-88
2023/12/21 07:39:04;;;;;;;;;;;;;;;3.97;70.55;98922.59;4356787;32;33377;-90
2023/12/21 07:41:36;;;;;;;;;;;;;;;4.04;71.29;98933.75;4352586;32;33065;-89
2023/12/21 07:44:06;;;;;;;;;;;;;;;4.40;70.14;98929.47;4359991;32;34068;-88
2023/12/21 07:46:34;;;;;;;;;;;;;;;4.24;71.54;98921.75;4352668;32;34089;-89
2023/12/21 07:49:04;;;;;;;;;;;;;;;4.04;73.75;98920.91;4355246;32;34447;-89
2023/12/21 07:51:39;;;;;;;;;;;;;;;4.09;73.46;98923.47;4352043;32;32388;-90
2023/12/21 07:54:07;;;;;;;;;;;;;;;4.74;71.38;98926.87;4357936;32;33995;-91
2023/12/21 07:56:36;;;;;;;;;;;;;;;4.74;71.33;98908.88;4358977;32;33627;-89
2023/12/21 07:59:07;;;;;;;;;;;;;;;4.73;70.73;98907.16;4356532;32;34614;-89
2023/12/21 08:01:36;;;;;;;;;;;;;;;5.00;70.43;98922.50;4352355;32;33635;-87
2023/12/21 08:04:08;;;;;;;;;;;;;;;5.05;70.92;98914.75;4355665;32;33757;-88
2023/12/21 08:06:38;;;;;;;;;;;;;;;5.25;70.86;98899.28;4362260;32;34555;-88
2023/12/21 08:09:11;;;;;;;;;;;;;;;5.33;70.28;98900.09;4360886;32;33555;-89
2023/12/21 08:11:46;;;;;;;;;;;;;;;5.53;68.86;98890.56;4343908;32;31296;-87
2023/12/21 08:14:16;;;;;;;;;;;;;;;5.59;68.27;98894.81;4354391;32;33465;-91
2023/12/21 08:16:45;;;;;;;;;;;;;;;5.80;67.20;98896.41;4356588;32;33665;-89
2023/12/21 08:19:14;;;;;;;;;;;;;;;5.71;67.48;98889.59;4361227;32;33638;-90
2023/12/21 08:21:43;;;;;;;;;;;;;;;5.88;66.89;98888.63;4355968;32;33044;-88
2023/12/21 08:24:12;;;;;;;;;;;;;;;5.96;66.71;98876.56;4355945;32;33411;-88
2023/12/21 08:26:48;;;;;;;;;;;;;;;5.94;66.22;98881.75;4356134;32;34017;-89
2023/12/21 08:29:18;;;;;;;;;;;;;;;6.17;65.77;98871.25;4361836;32;34465;-92
2023/12/21 08:31:48;;;;;;;;;;;;;;;6.15;65.68;98862.66;4356931;32;33728;-90
2023/12/21 08:34:16;;;;;;;;;;;;;;;6.30;65.36;98876.28;4356260;32;34743;-89
2023/12/21 08:36:47;;;;;;;;;;;;;;;6.30;65.28;98864.25;4356217;32;33849;-89
2023/12/21 08:39:16;;;;;;;;;;;;;;;6.20;65.95;98865.22;4356696;32;34938;-88
2023/12/21 08:41:45;;;;;;;;;;;;;;;6.29;65.58;98865.13;4351249;32;32718;-88
2023/12/21 08:44:20;;;;;;;;;;;;;;;6.30;65.17;98860.84;4355489;32;33553;-88
2023/12/21 08:46:55;;;;;;;;;;;;;;;6.30;65.30;98866.81;4356579;32;34903;-90
2023/12/21 08:49:23;;;;;;;;;;;;;;;6.20;65.93;98868.62;4357007;32;34244;-91
2023/12/21 08:51:53;;;;;;;;;;;;;;;6.34;65.51;98865.94;4361467;32;33980;-90
2023/12/21 08:54:22;;;;;;;;;;;;;;;6.35;65.49;98870.22;4355402;32;32756;-92
2023/12/21 08:56:54;;;;;;;;;;;;;;;6.55;65.08;98871.78;4355572;32;34285;-90
2023/12/21 08:59:26;;;;;;;;;;;;;;;6.61;64.56;98857.06;4360280;32;33251;-88
2023/12/21 09:01:58;;;;;;;;;;;;;;;6.43;65.02;98867.59;4356284;32;33332;-89
2023/12/21 09:04:27;;;;;;;;;;;;;;;6.65;64.49;98867.38;4360240;32;33814;-91
2023/12/21 09:06:58;;;;;;;;;;;;;;;6.81;64.09;98866.31;4354193;32;34695;-87
2023/12/21 09:09:28;;;;;;;;;;;;;;;6.58;65.11;98871.72;4356040;32;33982;-91
2023/12/21 09:11:57;;;;;;;;;;;;;;;6.74;64.38;98869.81;4355595;32;32945;-89
2023/12/21 09:14:32;;;;;;;;;;;;;;;6.82;64.01;98871.47;4356572;32;33627;-89
2023/12/21 09:17:01;;;;;;;;;;;;;;;6.77;64.07;98873.25;4360304;32;33323;-94
2023/12/21 09:19:29;;;;;;;;;;;;;;;6.63;64.50;98875.13;4355693;32;33698;-89
2023/12/21 09:22:04;;;;;;;;;;;;;;;6.81;64.12;98863.75;4355003;32;33485;-88
2023/12/21 09:24:33;;;;;;;;;;;;;;;6.92;64.11;98859.31;4355338;32;33752;-90
2023/12/21 09:27:04;;;;;;;;;;;;;;;7.10;63.32;98853.06;4360741;32;32526;-90
2023/12/21 09:29:34;;;;;;;;;;;;;;;7.03;63.97;98849.75;4354518;32;34000;-90
2023/12/21 09:32:06;;;;;;;;;;;;;;;7.18;63.37;98837.53;4354649;32;33593;-89
2023/12/21 09:34:35;;;;;;;;;;;;;;;7.13;63.52;98839.28;4351335;32;34105;-88
2023/12/21 09:37:07;;;;;;;;;;;;;;;7.12;63.68;98835.00;4359631;32;34521;-90
2023/12/21 09:39:36;;;;;;;;;;;;;;;7.18;62.78;98842.69;4361062;32;34486;-88
2023/12/21 09:42:08;;;;;;;;;;;;;;;7.19;63.11;98827.16;4354391;32;32808;-88
2023/12/21 09:44:38;;;;;;;;;;;;;;;7.30;62.78;98824.47;4350761;32;33376;-88
2023/12/21 09:47:11;;;;;;;;;;;;;;;7.11;63.46;98820.41;4357473;32;35150;-89
2023/12/21 09:49:40;;;;;;;;;;;;;;;7.25;63.18;98806.47;4360714;32;34673;-89
2023/12/21 09:52:34;;;;;;;;;;;;;;;7.40;62.81;98794.22;4357065;32;35402;-90
2023/12/21 09:55:04;;;;;;;;;;;;;;;7.55;62.82;98780.22;4354473;32;34023;-92
2023/12/21 09:57:34;;;;;;;;;;;;;;;7.55;62.77;98777.66;4355694;32;34107;-89
2023/12/21 10:00:04;;;;;;;;;;;;;;;7.78;61.82;98783.31;4355450;32;33947;-89
2023/12/21 10:02:43;;;;;;;;;;;;;;;7.91;61.54;98773.59;4361253;32;33439;-88
2023/12/21 10:05:12;;;;;;;;;;;;;;;7.73;61.71;98785.06;4359958;32;33687;-88
2023/12/21 10:07:42;;;;;;;;;;;;;;;7.87;61.85;98792.59;4355769;32;34430;-89
2023/12/21 10:10:11;;;;;;;;;;;;;;;7.93;61.61;98789.94;4355996;32;33193;-89
2023/12/21 10:12:41;;;;;;;;;;;;;;;8.06;61.06;98777.66;4355801;32;33525;-90
2023/12/21 10:15:12;;;;;;;;;;;;;;;8.01;61.18;98763.97;4360531;32;33400;-88
2023/12/21 10:17:42;;;;;;;;;;;;;;;8.05;60.98;98758.72;4353750;32;33735;-90
2023/12/21 10:20:11;;;;;;;;;;;;;;;7.77;61.75;98757.50;4355614;32;33590;-89
2023/12/21 10:22:42;;;;;;;;;;;;;;;8.00;61.42;98752.78;4355593;32;32771;-91
2023/12/21 10:25:12;;;;;;;;;;;;;;;7.98;61.55;98745.94;4361017;32;34426;-90
2023/12/21 10:27:46;;;;;;;;;;;;;;;8.15;61.15;98745.66;4356591;32;34214;-88
2023/12/21 10:30:16;;;;;;;;;;;;;;;8.21;60.81;98735.19;4357181;32;34301;-88
2023/12/21 10:32:46;;;;;;;;;;;;;;;8.08;61.35;98729.41;4355480;32;32418;-90
2023/12/21 10:35:21;;;;;;;;;;;;;;;8.16;61.06;98722.34;4355422;32;35248;-90
2023/12/21 10:37:56;;;;;;;;;;;;;;;8.22;61.18;98711.06;4361192;32;34002;-93
2023/12/21 10:40:25;;;;;;;;;;;;;;;8.28;61.31;98713.50;4359557;32;33821;-89
2023/12/21 10:42:56;;;;;;;;;;;;;;;8.40;60.99;98700.38;4354639;32;32315;-89
2023/12/21 10:45:31;;;;;;;;;;;;;;;8.49;60.44;98687.28;4354663;32;33708;-89
2023/12/21 10:48:04;;;;;;;;;;;;;;;8.49;60.48;98676.94;4355799;32;34731;-90
2023/12/21 10:50:40;;;;;;;;;;;;;;;8.41;61.00;98665.91;4359016;32;35434;-91
2023/12/21 10:53:11;;;;;;;;;;;;;;;8.54;60.52;98667.34;4354359;32;33443;-89
2023/12/21 10:55:41;;;;;;;;;;;;;;;8.39;61.26;98651.28;4354319;32;33037;-90
2023/12/21 10:58:17;;;;;;;;;;;;;;;8.61;60.61;98641.38;4355346;32;34259;-90
2023/12/21 11:00:47;;;;;;;;;;;;;;;8.54;60.51;98618.22;4352978;32;33629;-90
2023/12/21 11:03:19;;;;;;;;;;;;;;;8.68;59.79;98615.34;4357083;32;33325;-90
2023/12/21 11:05:47;;;;;;;;;;;;;;;8.54;60.11;98605.31;4353631;32;34071;-90
2023/12/21 11:08:19;;;;;;;;;;;;;;;8.66;60.05;98595.56;4355279;32;33346;-89
2023/12/21 11:10:48;;;;;;;;;;;;;;;8.42;60.81;98590.06;4354042;32;34513;-89
2023/12/21 11:13:17;;;;;;;;;;;;;;;8.63;60.49;98593.06;4360316;32;33428;-91
2023/12/21 11:15:47;;;;;;;;;;;;;;;8.63;60.86;98583.56;4352245;32;33545;-92
2023/12/21 11:18:17;;;;;;;;;;;;;;;8.76;60.83;98573.78;4355436;32;33465;-88
2023/12/21 11:20:51;;;;;;;;;;;;;;;8.81;60.65;98565.91;4354701;32;33785;-90
2023/12/21 11:23:23;;;;;;;;;;;;;;;8.88;60.03;98562.31;4355418;32;32020;-89
2023/12/21 11:25:54;;;;;;;;;;;;;;;8.83;59.84;98558.97;4359808;32;33662;-89
2023/12/21 11:28:28;;;;;;;;;;;;;;;9.02;59.56;98552.47;4353849;32;32643;-90
2023/12/21 11:30:58;;;;;;;;;;;;;;;8.90;59.38;98550.19;4355348;32;34989;-89
2023/12/21 11:33:37;;;;;;;;;;;;;;;9.03;58.65;98550.72;4353976;32;33987;-90
2023/12/21 11:36:07;;;;;;;;;;;;;;;8.88;58.81;98544.19;4353846;32;33182;-89
2023/12/21 11:38:45;;;;;;;;;;;;;;;9.11;58.00;98534.12;4360892;32;34698;-89
2023/12/21 11:41:22;;;;;;;;;;;;;;;9.10;57.85;98541.91;4356373;32;34444;-90
2023/12/21 11:44:02;;;;;;;;;;;;;;;9.16;57.65;98526.25;4354312;32;33038;-88
2023/12/21 11:46:36;;;;;;;;;;;;;;;9.32;57.19;98518.91;4355268;32;33541;-88
2023/12/21 11:49:05;;;;;;;;;;;;;;;9.30;57.37;98512.91;4357295;32;33834;-92
2023/12/21 11:51:35;;;;;;;;;;;;;;;9.28;56.88;98504.34;4361834;32;34149;-89
2023/12/21 11:54:04;;;;;;;;;;;;;;;9.21;57.45;98503.69;4355234;32;33503;-89
2023/12/21 11:56:39;;;;;;;;;;;;;;;9.26;57.32;98499.22;4356052;32;34101;-90
2023/12/21 11:59:10;;;;;;;;;;;;;;;9.35;57.66;98495.53;4357671;32;34779;-90
2023/12/21 12:01:43;;;;;;;;;;;;;;;9.38;57.88;98485.94;4362234;32;34158;-89
2023/12/21 12:04:15;;;;;;;;;;;;;;;9.23;58.32;98486.38;4361420;32;32314;-88
2023/12/21 12:06:49;;;;;;;;;;;;;;;9.11;58.34;98476.31;4356113;32;34732;-89
2023/12/21 12:09:22;;;;;;;;;;;;;;;8.98;58.91;98476.66;4357903;32;33879;-89
2023/12/21 12:11:51;;;;;;;;;;;;;;;9.07;58.29;98475.56;4356075;32;34422;-89
2023/12/21 12:14:20;;;;;;;;;;;;;;;9.12;58.52;98472.88;4361241;32;34714;-92
2023/12/21 12:16:53;;;;;;;;;;;;;;;9.05;58.58;98461.84;4356093;32;34289;-91
2023/12/21 12:19:25;;;;;;;;;;;;;;;9.00;59.06;98448.16;4359585;32;33645;-91
2023/12/21 12:21:53;;;;;;;;;;;;;;;8.95;59.09;98437.94;4355864;32;34659;-89
2023/12/21 12:24:28;;;;;;;;;;;;;;;8.98;59.22;98432.69;4355408;32;32860;-89
2023/12/21 12:26:57;;;;;;;;;;;;;;;9.17;59.02;98434.78;4361237;32;33976;-92
2023/12/21 12:29:28;;;;;;;;;;;;;;;9.08;59.21;98425.53;4356873;32;34713;-90
2023/12/21 12:31:58;;;;;;;;;;;;;;;8.90;59.65;98426.88;4355604;32;34203;-90
2023/12/21 12:34:27;;;;;;;;;;;;;;;8.94;59.46;98422.50;4356259;32;34216;-89
2023/12/21 12:36:55;;;;;;;;;;;;;;;8.94;59.40;98407.81;4361141;32;34195;-89
2023/12/21 12:39:24;;;;;;;;;;;;;;;8.80;59.61;98404.75;4356125;32;34239;-90
2023/12/21 12:41:57;;;;;;;;;;;;;;;8.80;59.48;98391.81;4355056;32;33463;-89
2023/12/21 12:44:26;;;;;;;;;;;;;;;8.84;59.40;98384.81;4355684;32;33403;-91
2023/12/21 12:47:00;;;;;;;;;;;;;;;8.85;58.96;98391.69;4354490;32;34308;-89
2023/12/21 12:49:34;;;;;;;;;;;;;;;8.72;59.58;98376.50;4360891;32;33581;-91
2023/12/21 12:52:07;;;;;;;;;;;;;;;8.74;59.46;98355.78;4353977;32;34032;-92
2023/12/21 12:54:36;;;;;;;;;;;;;;;8.94;59.44;98350.91;4355704;32;33992;-89
2023/12/21 12:57:05;;;;;;;;;;;;;;;8.88;60.01;98335.56;4357680;32;33738;-91
2023/12/21 12:59:37;;;;;;;;;;;;;;;8.87;59.66;98322.69;4361871;32;34213;-89
2023/12/21 13:02:07;;;;;;;;;;;;;;;8.67;59.96;98325.78;4355351;32;33838;-92
2023/12/21 13:04:36;;;;;;;;;;;;;;;8.76;60.05;98316.06;4356298;32;32352;-89
2023/12/21 13:07:06;;;;;;;;;;;;;;;8.84;59.71;98317.56;4356925;32;34565;-89
2023/12/21 13:09:36;;;;;;;;;;;;;;;8.70;60.50;98302.47;4357011;32;34221;-89
2023/12/21 13:12:05;;;;;;;;;;;;;;;8.78;60.31;98304.84;4360230;32;33442;-89
2023/12/21 13:14:34;;;;;;;;;;;;;;;8.66;61.13;98293.94;4352659;32;32802;-89
2023/12/21 13:17:12;;;;;;;;;;;;;;;8.76;61.30;98279.00;4347184;32;33580;-89
2023/12/21 13:19:41;;;;;;;;;;;;;;;8.54;62.57;98276.19;4356515;32;34411;-90